sensor_id;sensor_type;location;lat;lon;timestamp;temperature;humidity
24410;DHT22;12543;53.364;-1.504;2023-07-24T00:02:07;12.90;99.90
24410;DHT22;12543;53.364;-1.504;2023-07-24T00:04:34;12.90;99.90
24410;DHT22;12543;53.364;-1.504;2023-07-24T00:07:01;12.90;99.90
24410;DHT22;12543;53.364;-1.504;2023-07-24T00:09:38;12.90;99.90
24410;DHT22;12543;53.364;-1.504;2023-07-24T00:12:06;12.80;99.90
24410;DHT22;12543;53.364;-1.504;2023-07-24T00:14:36;12.80;99.90
24410;DHT22;12543;53.364;-1.504;2023-07-24T00:17:04;12.80;99.90
24410;DHT22;12543;53.364;-1.504;2023-07-24T00:19:31;12.80;99.90
24410;DHT22;12543;53.364;-1.504;2023-07-24T00:21:58;12.80;99.90
24410;DHT22;12543;53.364;-1.504;2023-07-24T00:24:25;12.80;99.90
24410;DHT22;12543;53.364;-1.504;2023-07-24T00:26:52;12.80;99.90
24410;DHT22;12543;53.364;-1.504;2023-07-24T00:29:19;12.80;99.90
24410;DHT22;12543;53.364;-1.504;2023-07-24T00:31:50;12.80;99.90
24410;DHT22;12543;53.364;-1.504;2023-07-24T00:34:17;12.80;99.90
24410;DHT22;12543;53.364;-1.504;2023-07-24T00:36:44;12.90;99.90
24410;DHT22;12543;53.364;-1.504;2023-07-24T00:39:16;12.90;99.90
24410;DHT22;12543;53.364;-1.504;2023-07-24T00:41:52;12.80;99.90
24410;DHT22;12543;53.364;-1.504;2023-07-24T00:44:20;12.80;99.90
24410;DHT22;12543;53.364;-1.504;2023-07-24T00:46:48;12.80;99.90
24410;DHT22;12543;53.364;-1.504;2023-07-24T00:49:16;12.80;99.90
24410;DHT22;12543;53.364;-1.504;2023-07-24T00:51:46;12.70;99.90
24410;DHT22;12543;53.364;-1.504;2023-07-24T00:54:18;12.80;99.90
24410;DHT22;12543;53.364;-1.504;2023-07-24T00:56:46;12.70;99.90
24410;DHT22;12543;53.364;-1.504;2023-07-24T00:59:15;12.70;99.90
24410;DHT22;12543;53.364;-1.504;2023-07-24T01:01:42;12.70;99.90
24410;DHT22;12543;53.364;-1.504;2023-07-24T01:04:12;12.70;99.90
24410;DHT22;12543;53.364;-1.504;2023-07-24T01:06:40;12.70;99.90
24410;DHT22;12543;53.364;-1.504;2023-07-24T01:09:08;12.70;99.90
24410;DHT22;12543;53.364;-1.504;2023-07-24T01:11:54;12.70;99.90
24410;DHT22;12543;53.364;-1.504;2023-07-24T01:14:29;12.70;99.90
24410;DHT22;12543;53.364;-1.504;2023-07-24T01:17:10;12.70;99.90
24410;DHT22;12543;53.364;-1.504;2023-07-24T01:19:41;12.70;99.90
24410;DHT22;12543;53.364;-1.504;2023-07-24T01:22:38;12.60;99.90
24410;DHT22;12543;53.364;-1.504;2023-07-24T01:27:43;12.60;99.90
24410;DHT22;12543;53.364;-1.504;2023-07-24T01:30:14;12.60;99.90
24410;DHT22;12543;53.364;-1.504;2023-07-24T01:32:42;12.70;99.90
24410;DHT22;12543;53.364;-1.504;2023-07-24T01:35:09;12.70;99.90
24410;DHT22;12543;53.364;-1.504;2023-07-24T01:37:37;12.60;99.90
24410;DHT22;12543;53.364;-1.504;2023-07-24T01:40:07;12.60;99.90
24410;DHT22;12543;53.364;-1.504;2023-07-24T01:42:35;12.70;99.90
24410;DHT22;12543;53.364;-1.504;2023-07-24T01:45:04;12.60;99.90
24410;DHT22;12543;53.364;-1.504;2023-07-24T01:47:31;12.60;99.90
24410;DHT22;12543;53.364;-1.504;2023-07-24T01:49:59;12.60;99.90
24410;DHT22;12543;53.364;-1.504;2023-07-24T01:52:26;12.60;99.90
24410;DHT22;12543;53.364;-1.504;2023-07-24T01:54:53;12.60;99.90
24410;DHT22;12543;53.364;-1.504;2023-07-24T01:57:21;12.60;99.90
24410;DHT22;12543;53.364;-1.504;2023-07-24T01:59:48;12.60;99.90
24410;DHT22;12543;53.364;-1.504;2023-07-24T02:02:16;12.60;99.90
24410;DHT22;12543;53.364;-1.504;2023-07-24T02:04:43;12.60;99.90
24410;DHT22;12543;53.364;-1.504;2023-07-24T02:07:13;12.60;99.90
24410;DHT22;12543;53.364;-1.504;2023-07-24T02:09:40;12.60;99.90
24410;DHT22;12543;53.364;-1.504;2023-07-24T02:12:07;12.60;99.90
24410;DHT22;12543;53.364;-1.504;2023-07-24T02:14:34;12.60;99.90
24410;DHT22;12543;53.364;-1.504;2023-07-24T02:17:02;12.60;99.90
24410;DHT22;12543;53.364;-1.504;2023-07-24T02:19:29;12.60;99.90
24410;DHT22;12543;53.364;-1.504;2023-07-24T02:21:56;12.60;99.90
24410;DHT22;12543;53.364;-1.504;2023-07-24T02:24:23;12.60;99.90
24410;DHT22;12543;53.364;-1.504;2023-07-24T02:26:50;12.60;99.90
24410;DHT22;12543;53.364;-1.504;2023-07-24T02:29:17;12.60;99.90
24410;DHT22;12543;53.364;-1.504;2023-07-24T02:31:46;12.60;99.90
24410;DHT22;12543;53.364;-1.504;2023-07-24T02:34:15;12.60;99.90
24410;DHT22;12543;53.364;-1.504;2023-07-24T02:36:42;12.50;99.90
24410;DHT22;12543;53.364;-1.504;2023-07-24T02:39:09;12.60;99.90
24410;DHT22;12543;53.364;-1.504;2023-07-24T02:41:36;12.50;99.90
24410;DHT22;12543;53.364;-1.504;2023-07-24T02:44:05;12.60;99.90
24410;DHT22;12543;53.364;-1.504;2023-07-24T02:46:32;12.50;99.90
24410;DHT22;12543;53.364;-1.504;2023-07-24T02:48:59;12.50;99.90
24410;DHT22;12543;53.364;-1.504;2023-07-24T02:51:26;12.50;99.90
24410;DHT22;12543;53.364;-1.504;2023-07-24T02:53:54;12.50;99.90
24410;DHT22;12543;53.364;-1.504;2023-07-24T02:56:21;12.50;99.90
24410;DHT22;12543;53.364;-1.504;2023-07-24T02:58:49;12.60;99.90
24410;DHT22;12543;53.364;-1.504;2023-07-24T03:01:16;12.60;99.90
24410;DHT22;12543;53.364;-1.504;2023-07-24T03:03:44;12.60;99.90
24410;DHT22;12543;53.364;-1.504;2023-07-24T03:06:12;12.60;99.90
24410;DHT22;12543;53.364;-1.504;2023-07-24T03:08:39;12.60;99.90
24410;DHT22;12543;53.364;-1.504;2023-07-24T03:11:06;12.60;99.90
24410;DHT22;12543;53.364;-1.504;2023-07-24T03:13:34;12.60;99.90
24410;DHT22;12543;53.364;-1.504;2023-07-24T03:16:16;12.60;99.90
24410;DHT22;12543;53.364;-1.504;2023-07-24T03:19:00;12.60;99.90
24410;DHT22;12543;53.364;-1.504;2023-07-24T03:21:27;12.60;99.90
24410;DHT22;12543;53.364;-1.504;2023-07-24T03:23:54;12.60;99.90
24410;DHT22;12543;53.364;-1.504;2023-07-24T03:26:21;12.60;99.90
24410;DHT22;12543;53.364;-1.504;2023-07-24T03:28:49;12.60;99.90
24410;DHT22;12543;53.364;-1.504;2023-07-24T03:31:16;12.60;99.90
24410;DHT22;12543;53.364;-1.504;2023-07-24T03:33:44;12.60;99.90
24410;DHT22;12543;53.364;-1.504;2023-07-24T03:36:12;12.60;99.90
24410;DHT22;12543;53.364;-1.504;2023-07-24T03:38:39;12.60;99.90
24410;DHT22;12543;53.364;-1.504;2023-07-24T03:41:06;12.60;99.90
24410;DHT22;12543;53.364;-1.504;2023-07-24T03:43:33;12.70;99.90
24410;DHT22;12543;53.364;-1.504;2023-07-24T03:46:00;12.70;99.90
24410;DHT22;12543;53.364;-1.504;2023-07-24T03:48:28;12.70;99.90
24410;DHT22;12543;53.364;-1.504;2023-07-24T03:50:59;12.70;99.90
24410;DHT22;12543;53.364;-1.504;2023-07-24T03:53:27;12.70;99.90
24410;DHT22;12543;53.364;-1.504;2023-07-24T03:55:54;12.60;99.90
24410;DHT22;12543;53.364;-1.504;2023-07-24T03:58:21;12.70;99.90
24410;DHT22;12543;53.364;-1.504;2023-07-24T04:00:48;12.60;99.90
24410;DHT22;12543;53.364;-1.504;2023-07-24T04:03:16;12.60;99.90
24410;DHT22;12543;53.364;-1.504;2023-07-24T04:05:43;12.60;99.90
24410;DHT22;12543;53.364;-1.504;2023-07-24T04:08:11;12.60;99.90
24410;DHT22;12543;53.364;-1.504;2023-07-24T04:10:38;12.60;99.90
24410;DHT22;12543;53.364;-1.504;2023-07-24T04:13:05;12.60;99.90
24410;DHT22;12543;53.364;-1.504;2023-07-24T04:15:32;12.60;99.90
24410;DHT22;12543;53.364;-1.504;2023-07-24T04:17:59;12.60;99.90
24410;DHT22;12543;53.364;-1.504;2023-07-24T04:20:26;12.60;99.90
24410;DHT22;12543;53.364;-1.504;2023-07-24T04:22:53;12.60;99.90
24410;DHT22;12543;53.364;-1.504;2023-07-24T04:25:20;12.60;99.90
24410;DHT22;12543;53.364;-1.504;2023-07-24T04:27:47;12.60;99.90
24410;DHT22;12543;53.364;-1.504;2023-07-24T04:30:14;12.70;99.90
24410;DHT22;12543;53.364;-1.504;2023-07-24T04:32:42;12.70;99.90
24410;DHT22;12543;53.364;-1.504;2023-07-24T04:35:09;12.60;99.90
24410;DHT22;12543;53.364;-1.504;2023-07-24T04:37:36;12.60;99.90
24410;DHT22;12543;53.364;-1.504;2023-07-24T04:40:04;12.60;99.90
24410;DHT22;12543;53.364;-1.504;2023-07-24T04:42:32;12.60;99.90
24410;DHT22;12543;53.364;-1.504;2023-07-24T04:44:59;12.60;99.90
24410;DHT22;12543;53.364;-1.504;2023-07-24T04:47:26;12.60;99.90
24410;DHT22;12543;53.364;-1.504;2023-07-24T04:49:53;12.60;99.90
24410;DHT22;12543;53.364;-1.504;2023-07-24T04:52:20;12.60;99.90
24410;DHT22;12543;53.364;-1.504;2023-07-24T04:54:47;12.60;99.90
24410;DHT22;12543;53.364;-1.504;2023-07-24T04:57:14;12.60;99.90
24410;DHT22;12543;53.364;-1.504;2023-07-24T04:59:41;12.60;99.90
24410;DHT22;12543;53.364;-1.504;2023-07-24T05:02:10;12.60;99.90
24410;DHT22;12543;53.364;-1.504;2023-07-24T05:04:37;12.60;99.90
24410;DHT22;12543;53.364;-1.504;2023-07-24T05:07:04;12.60;99.90
24410;DHT22;12543;53.364;-1.504;2023-07-24T05:09:32;12.60;99.90
24410;DHT22;12543;53.364;-1.504;2023-07-24T05:11:59;12.60;99.90
24410;DHT22;12543;53.364;-1.504;2023-07-24T05:14:26;12.60;99.90
24410;DHT22;12543;53.364;-1.504;2023-07-24T05:16:53;12.60;99.90
24410;DHT22;12543;53.364;-1.504;2023-07-24T05:19:20;12.60;99.90
24410;DHT22;12543;53.364;-1.504;2023-07-24T05:21:47;12.60;99.90
24410;DHT22;12543;53.364;-1.504;2023-07-24T05:24:14;12.60;99.90
24410;DHT22;12543;53.364;-1.504;2023-07-24T05:26:41;12.70;99.90
24410;DHT22;12543;53.364;-1.504;2023-07-24T05:29:15;12.60;99.90
24410;DHT22;12543;53.364;-1.504;2023-07-24T05:31:56;12.60;99.90
24410;DHT22;12543;53.364;-1.504;2023-07-24T05:34:29;12.60;99.90
24410;DHT22;12543;53.364;-1.504;2023-07-24T05:37:20;12.50;99.90
24410;DHT22;12543;53.364;-1.504;2023-07-24T05:39:47;12.60;99.90
24410;DHT22;12543;53.364;-1.504;2023-07-24T05:42:14;12.50;99.90
24410;DHT22;12543;53.364;-1.504;2023-07-24T05:44:41;12.50;99.90
24410;DHT22;12543;53.364;-1.504;2023-07-24T05:47:08;12.50;99.90
24410;DHT22;12543;53.364;-1.504;2023-07-24T05:49:35;12.50;99.90
24410;DHT22;12543;53.364;-1.504;2023-07-24T05:52:03;12.50;99.90
24410;DHT22;12543;53.364;-1.504;2023-07-24T05:54:30;12.50;99.90
24410;DHT22;12543;53.364;-1.504;2023-07-24T05:56:57;12.50;99.90
24410;DHT22;12543;53.364;-1.504;2023-07-24T05:59:24;12.50;99.90
24410;DHT22;12543;53.364;-1.504;2023-07-24T06:01:52;12.50;99.90
24410;DHT22;12543;53.364;-1.504;2023-07-24T06:04:19;12.50;99.90
24410;DHT22;12543;53.364;-1.504;2023-07-24T06:06:47;12.50;99.90
24410;DHT22;12543;53.364;-1.504;2023-07-24T06:09:14;12.40;99.90
24410;DHT22;12543;53.364;-1.504;2023-07-24T06:11:47;12.40;99.90
24410;DHT22;12543;53.364;-1.504;2023-07-24T06:14:14;12.40;99.90
24410;DHT22;12543;53.364;-1.504;2023-07-24T06:16:41;12.40;99.90
24410;DHT22;12543;53.364;-1.504;2023-07-24T06:19:09;12.40;99.90
24410;DHT22;12543;53.364;-1.504;2023-07-24T06:21:36;12.40;99.90
24410;DHT22;12543;53.364;-1.504;2023-07-24T06:24:04;12.40;99.90
24410;DHT22;12543;53.364;-1.504;2023-07-24T06:26:31;12.40;99.90
24410;DHT22;12543;53.364;-1.504;2023-07-24T06:28:58;12.40;99.90
24410;DHT22;12543;53.364;-1.504;2023-07-24T06:31:25;12.40;99.90
24410;DHT22;12543;53.364;-1.504;2023-07-24T06:33:53;12.40;99.90
24410;DHT22;12543;53.364;-1.504;2023-07-24T06:36:20;12.40;99.90
24410;DHT22;12543;53.364;-1.504;2023-07-24T06:38:47;12.40;99.90
24410;DHT22;12543;53.364;-1.504;2023-07-24T06:41:14;12.40;99.90
24410;DHT22;12543;53.364;-1.504;2023-07-24T06:43:46;12.40;99.90
24410;DHT22;12543;53.364;-1.504;2023-07-24T06:46:14;12.40;99.90
24410;DHT22;12543;53.364;-1.504;2023-07-24T06:48:41;12.40;99.90
24410;DHT22;12543;53.364;-1.504;2023-07-24T06:51:08;12.40;99.90
24410;DHT22;12543;53.364;-1.504;2023-07-24T06:53:35;12.40;99.90
24410;DHT22;12543;53.364;-1.504;2023-07-24T06:56:02;12.40;99.90
24410;DHT22;12543;53.364;-1.504;2023-07-24T06:58:29;12.40;99.90
24410;DHT22;12543;53.364;-1.504;2023-07-24T07:00:57;12.40;99.90
24410;DHT22;12543;53.364;-1.504;2023-07-24T07:03:24;12.40;99.90
24410;DHT22;12543;53.364;-1.504;2023-07-24T07:05:51;12.40;99.90
24410;DHT22;12543;53.364;-1.504;2023-07-24T07:08:18;12.40;99.90
24410;DHT22;12543;53.364;-1.504;2023-07-24T07:10:46;12.50;99.90
24410;DHT22;12543;53.364;-1.504;2023-07-24T07:13:14;12.50;99.90
24410;DHT22;12543;53.364;-1.504;2023-07-24T07:15:41;12.50;99.90
24410;DHT22;12543;53.364;-1.504;2023-07-24T07:18:08;12.50;99.90
24410;DHT22;12543;53.364;-1.504;2023-07-24T07:20:36;12.50;99.90
24410;DHT22;12543;53.364;-1.504;2023-07-24T07:23:03;12.50;99.90
24410;DHT22;12543;53.364;-1.504;2023-07-24T07:25:30;12.50;99.90
24410;DHT22;12543;53.364;-1.504;2023-07-24T07:27:57;12.60;99.90
24410;DHT22;12543;53.364;-1.504;2023-07-24T07:30:24;12.60;99.90
24410;DHT22;12543;53.364;-1.504;2023-07-24T07:32:51;12.60;99.90
24410;DHT22;12543;53.364;-1.504;2023-07-24T07:35:19;12.60;99.90
24410;DHT22;12543;53.364;-1.504;2023-07-24T07:37:47;12.60;99.90
24410;DHT22;12543;53.364;-1.504;2023-07-24T07:40:14;12.70;99.90
24410;DHT22;12543;53.364;-1.504;2023-07-24T07:42:42;12.70;99.90
24410;DHT22;12543;53.364;-1.504;2023-07-24T07:45:11;12.70;99.90
24410;DHT22;12543;53.364;-1.504;2023-07-24T07:47:38;12.80;99.90
24410;DHT22;12543;53.364;-1.504;2023-07-24T07:50:05;12.80;99.90
24410;DHT22;12543;53.364;-1.504;2023-07-24T07:52:32;12.80;99.90
24410;DHT22;12543;53.364;-1.504;2023-07-24T07:54:59;12.80;99.90
24410;DHT22;12543;53.364;-1.504;2023-07-24T07:57:27;12.80;99.90
24410;DHT22;12543;53.364;-1.504;2023-07-24T07:59:54;12.80;99.90
24410;DHT22;12543;53.364;-1.504;2023-07-24T08:02:21;12.80;99.90
24410;DHT22;12543;53.364;-1.504;2023-07-24T08:04:48;12.80;99.90
24410;DHT22;12543;53.364;-1.504;2023-07-24T08:07:15;12.80;99.90
24410;DHT22;12543;53.364;-1.504;2023-07-24T08:09:42;12.90;99.90
24410;DHT22;12543;53.364;-1.504;2023-07-24T08:12:09;12.90;99.90
24410;DHT22;12543;53.364;-1.504;2023-07-24T08:14:36;13.00;99.90
24410;DHT22;12543;53.364;-1.504;2023-07-24T08:17:04;13.00;99.90
24410;DHT22;12543;53.364;-1.504;2023-07-24T08:19:31;13.00;99.90
24410;DHT22;12543;53.364;-1.504;2023-07-24T08:21:58;13.00;99.90
24410;DHT22;12543;53.364;-1.504;2023-07-24T08:24:25;13.10;99.90
24410;DHT22;12543;53.364;-1.504;2023-07-24T08:26:52;13.20;99.90
24410;DHT22;12543;53.364;-1.504;2023-07-24T08:29:20;13.30;99.90
24410;DHT22;12543;53.364;-1.504;2023-07-24T08:31:47;13.20;99.90
24410;DHT22;12543;53.364;-1.504;2023-07-24T08:34:14;13.30;99.90
24410;DHT22;12543;53.364;-1.504;2023-07-24T08:36:41;13.30;99.90
24410;DHT22;12543;53.364;-1.504;2023-07-24T08:39:08;13.30;99.90
24410;DHT22;12543;53.364;-1.504;2023-07-24T08:41:37;13.30;99.90
24410;DHT22;12543;53.364;-1.504;2023-07-24T08:44:07;13.30;99.90
24410;DHT22;12543;53.364;-1.504;2023-07-24T08:46:38;13.40;99.90
24410;DHT22;12543;53.364;-1.504;2023-07-24T08:49:14;13.40;99.90
24410;DHT22;12543;53.364;-1.504;2023-07-24T08:51:42;13.50;99.90
24410;DHT22;12543;53.364;-1.504;2023-07-24T08:54:11;13.50;99.90
24410;DHT22;12543;53.364;-1.504;2023-07-24T08:56:38;13.60;99.90
24410;DHT22;12543;53.364;-1.504;2023-07-24T08:59:14;13.70;99.90
24410;DHT22;12543;53.364;-1.504;2023-07-24T09:01:41;13.70;99.90
24410;DHT22;12543;53.364;-1.504;2023-07-24T09:04:09;13.80;99.90
24410;DHT22;12543;53.364;-1.504;2023-07-24T09:06:37;13.90;99.90
24410;DHT22;12543;53.364;-1.504;2023-07-24T09:09:14;13.90;99.90
24410;DHT22;12543;53.364;-1.504;2023-07-24T09:11:52;14.00;99.90
24410;DHT22;12543;53.364;-1.504;2023-07-24T09:14:21;14.00;99.90
24410;DHT22;12543;53.364;-1.504;2023-07-24T09:16:49;14.10;99.90
24410;DHT22;12543;53.364;-1.504;2023-07-24T09:19:19;14.30;99.90
24410;DHT22;12543;53.364;-1.504;2023-07-24T09:21:52;14.50;99.90
24410;DHT22;12543;53.364;-1.504;2023-07-24T09:24:19;14.60;99.90
24410;DHT22;12543;53.364;-1.504;2023-07-24T09:26:51;14.80;99.90
24410;DHT22;12543;53.364;-1.504;2023-07-24T09:29:31;14.80;99.90
24410;DHT22;12543;53.364;-1.504;2023-07-24T09:31:59;14.90;99.90
24410;DHT22;12543;53.364;-1.504;2023-07-24T09:34:27;15.00;99.90
24410;DHT22;12543;53.364;-1.504;2023-07-24T09:36:54;15.00;99.90
24410;DHT22;12543;53.364;-1.504;2023-07-24T09:39:26;14.90;99.90
24410;DHT22;12543;53.364;-1.504;2023-07-24T09:42:06;15.00;99.90
24410;DHT22;12543;53.364;-1.504;2023-07-24T09:44:33;14.90;99.90
24410;DHT22;12543;53.364;-1.504;2023-07-24T09:47:01;14.90;99.90
24410;DHT22;12543;53.364;-1.504;2023-07-24T09:49:48;15.00;99.90
24410;DHT22;12543;53.364;-1.504;2023-07-24T09:52:18;15.00;99.90
24410;DHT22;12543;53.364;-1.504;2023-07-24T09:55:05;15.00;99.90
24410;DHT22;12543;53.364;-1.504;2023-07-24T09:57:38;15.00;99.90
24410;DHT22;12543;53.364;-1.504;2023-07-24T10:00:06;15.10;99.90
24410;DHT22;12543;53.364;-1.504;2023-07-24T10:02:35;15.20;99.90
24410;DHT22;12543;53.364;-1.504;2023-07-24T10:05:03;15.30;99.90
24410;DHT22;12543;53.364;-1.504;2023-07-24T10:07:31;15.40;99.90
24410;DHT22;12543;53.364;-1.504;2023-07-24T10:09:58;15.50;99.90
24410;DHT22;12543;53.364;-1.504;2023-07-24T10:12:27;15.90;99.90
24410;DHT22;12543;53.364;-1.504;2023-07-24T10:14:55;16.20;99.90
24410;DHT22;12543;53.364;-1.504;2023-07-24T10:17:36;16.60;99.90
24410;DHT22;12543;53.364;-1.504;2023-07-24T10:20:05;16.80;99.90
24410;DHT22;12543;53.364;-1.504;2023-07-24T10:22:34;17.20;99.90
24410;DHT22;12543;53.364;-1.504;2023-07-24T10:25:02;17.50;99.90
24410;DHT22;12543;53.364;-1.504;2023-07-24T10:27:30;18.00;99.90
24410;DHT22;12543;53.364;-1.504;2023-07-24T10:30:02;18.00;99.90
24410;DHT22;12543;53.364;-1.504;2023-07-24T10:32:51;18.10;99.90
24410;DHT22;12543;53.364;-1.504;2023-07-24T10:35:22;18.00;99.90
24410;DHT22;12543;53.364;-1.504;2023-07-24T10:37:58;18.10;99.90
24410;DHT22;12543;53.364;-1.504;2023-07-24T10:40:26;18.20;99.90
24410;DHT22;12543;53.364;-1.504;2023-07-24T10:43:10;18.40;99.90
24410;DHT22;12543;53.364;-1.504;2023-07-24T10:45:39;18.60;99.90
24410;DHT22;12543;53.364;-1.504;2023-07-24T10:48:07;18.80;99.90
24410;DHT22;12543;53.364;-1.504;2023-07-24T10:50:42;19.00;99.90
24410;DHT22;12543;53.364;-1.504;2023-07-24T10:53:11;19.10;99.90
24410;DHT22;12543;53.364;-1.504;2023-07-24T10:55:38;19.20;99.90
24410;DHT22;12543;53.364;-1.504;2023-07-24T10:58:07;19.30;99.90
24410;DHT22;12543;53.364;-1.504;2023-07-24T11:00:34;19.10;99.90
24410;DHT22;12543;53.364;-1.504;2023-07-24T11:03:04;19.00;99.90
24410;DHT22;12543;53.364;-1.504;2023-07-24T11:05:42;18.70;99.90
24410;DHT22;12543;53.364;-1.504;2023-07-24T11:08:13;18.50;99.90
24410;DHT22;12543;53.364;-1.504;2023-07-24T11:10:52;18.40;99.90
24410;DHT22;12543;53.364;-1.504;2023-07-24T11:13:25;18.10;99.90
24410;DHT22;12543;53.364;-1.504;2023-07-24T11:15:53;18.00;99.90
24410;DHT22;12543;53.364;-1.504;2023-07-24T11:18:21;17.80;99.90
24410;DHT22;12543;53.364;-1.504;2023-07-24T11:20:51;17.90;99.90
24410;DHT22;12543;53.364;-1.504;2023-07-24T11:23:19;17.90;99.90
24410;DHT22;12543;53.364;-1.504;2023-07-24T11:25:50;17.80;99.90
24410;DHT22;12543;53.364;-1.504;2023-07-24T11:28:17;17.80;99.90
24410;DHT22;12543;53.364;-1.504;2023-07-24T11:30:44;17.80;99.90
24410;DHT22;12543;53.364;-1.504;2023-07-24T11:33:15;17.80;99.90
24410;DHT22;12543;53.364;-1.504;2023-07-24T11:35:46;17.90;99.90
24410;DHT22;12543;53.364;-1.504;2023-07-24T11:38:13;17.90;99.90
24410;DHT22;12543;53.364;-1.504;2023-07-24T11:40:42;17.80;99.90
24410;DHT22;12543;53.364;-1.504;2023-07-24T11:43:17;17.70;99.90
24410;DHT22;12543;53.364;-1.504;2023-07-24T11:45:45;17.70;99.90
24410;DHT22;12543;53.364;-1.504;2023-07-24T11:48:15;17.70;99.90
24410;DHT22;12543;53.364;-1.504;2023-07-24T11:50:47;17.80;99.90
24410;DHT22;12543;53.364;-1.504;2023-07-24T11:53:31;17.70;99.90
24410;DHT22;12543;53.364;-1.504;2023-07-24T11:55:59;17.90;99.90
24410;DHT22;12543;53.364;-1.504;2023-07-24T11:58:29;17.80;99.90
24410;DHT22;12543;53.364;-1.504;2023-07-24T12:00:56;18.00;99.90
24410;DHT22;12543;53.364;-1.504;2023-07-24T12:03:28;18.00;99.90
24410;DHT22;12543;53.364;-1.504;2023-07-24T12:05:56;17.90;99.90
24410;DHT22;12543;53.364;-1.504;2023-07-24T12:08:49;18.10;99.90
24410;DHT22;12543;53.364;-1.504;2023-07-24T12:11:17;18.00;99.90
24410;DHT22;12543;53.364;-1.504;2023-07-24T12:13:48;18.20;99.90
24410;DHT22;12543;53.364;-1.504;2023-07-24T12:16:17;18.20;99.90
24410;DHT22;12543;53.364;-1.504;2023-07-24T12:18:45;18.30;99.90
24410;DHT22;12543;53.364;-1.504;2023-07-24T12:21:12;18.30;99.90
24410;DHT22;12543;53.364;-1.504;2023-07-24T12:23:39;18.50;99.90
24410;DHT22;12543;53.364;-1.504;2023-07-24T12:26:06;18.40;99.90
24410;DHT22;12543;53.364;-1.504;2023-07-24T12:28:34;18.40;99.90
24410;DHT22;12543;53.364;-1.504;2023-07-24T12:31:01;18.30;99.90
24410;DHT22;12543;53.364;-1.504;2023-07-24T12:33:29;18.30;99.90
24410;DHT22;12543;53.364;-1.504;2023-07-24T12:35:56;18.40;99.90
24410;DHT22;12543;53.364;-1.504;2023-07-24T12:38:23;18.40;99.90
24410;DHT22;12543;53.364;-1.504;2023-07-24T12:40:50;18.30;99.90
24410;DHT22;12543;53.364;-1.504;2023-07-24T12:43:17;18.40;99.90
24410;DHT22;12543;53.364;-1.504;2023-07-24T12:45:44;18.50;99.90
24410;DHT22;12543;53.364;-1.504;2023-07-24T12:50:39;18.30;99.90
24410;DHT22;12543;53.364;-1.504;2023-07-24T12:53:06;18.30;99.90
24410;DHT22;12543;53.364;-1.504;2023-07-24T12:55:47;18.30;99.90
24410;DHT22;12543;53.364;-1.504;2023-07-24T12:58:22;18.30;99.90
24410;DHT22;12543;53.364;-1.504;2023-07-24T13:00:49;18.40;99.90
24410;DHT22;12543;53.364;-1.504;2023-07-24T13:03:16;18.60;99.90
24410;DHT22;12543;53.364;-1.504;2023-07-24T13:05:43;18.60;99.90
24410;DHT22;12543;53.364;-1.504;2023-07-24T13:08:12;18.60;99.90
24410;DHT22;12543;53.364;-1.504;2023-07-24T13:10:39;18.50;99.90
24410;DHT22;12543;53.364;-1.504;2023-07-24T13:13:06;18.30;99.90
24410;DHT22;12543;53.364;-1.504;2023-07-24T13:15:33;18.20;99.90
24410;DHT22;12543;53.364;-1.504;2023-07-24T13:18:00;18.00;99.90
24410;DHT22;12543;53.364;-1.504;2023-07-24T13:20:47;17.90;99.90
24410;DHT22;12543;53.364;-1.504;2023-07-24T13:23:14;17.70;99.90
24410;DHT22;12543;53.364;-1.504;2023-07-24T13:25:44;17.70;99.90
24410;DHT22;12543;53.364;-1.504;2023-07-24T13:28:12;17.60;99.90
24410;DHT22;12543;53.364;-1.504;2023-07-24T13:30:39;17.50;99.90
24410;DHT22;12543;53.364;-1.504;2023-07-24T13:33:06;17.50;99.90
24410;DHT22;12543;53.364;-1.504;2023-07-24T13:35:34;17.50;99.90
24410;DHT22;12543;53.364;-1.504;2023-07-24T13:38:01;17.50;99.90
24410;DHT22;12543;53.364;-1.504;2023-07-24T13:42:56;17.80;99.90
24410;DHT22;12543;53.364;-1.504;2023-07-24T13:45:23;18.00;99.90
24410;DHT22;12543;53.364;-1.504;2023-07-24T13:50:18;18.10;99.90
24410;DHT22;12543;53.364;-1.504;2023-07-24T13:52:45;18.10;99.90
24410;DHT22;12543;53.364;-1.504;2023-07-24T13:57:41;18.10;99.90
24410;DHT22;12543;53.364;-1.504;2023-07-24T14:00:08;18.10;99.90
24410;DHT22;12543;53.364;-1.504;2023-07-24T14:02:39;18.20;99.90
24410;DHT22;12543;53.364;-1.504;2023-07-24T14:05:07;18.30;99.90
24410;DHT22;12543;53.364;-1.504;2023-07-24T14:07:34;18.40;99.90
24410;DHT22;12543;53.364;-1.504;2023-07-24T14:10:01;18.50;99.90
24410;DHT22;12543;53.364;-1.504;2023-07-24T14:12:30;18.40;99.90
24410;DHT22;12543;53.364;-1.504;2023-07-24T14:14:57;18.50;99.90
24410;DHT22;12543;53.364;-1.504;2023-07-24T14:17:25;18.20;99.90
24410;DHT22;12543;53.364;-1.504;2023-07-24T14:19:52;18.20;99.90
24410;DHT22;12543;53.364;-1.504;2023-07-24T14:22:19;18.00;99.90
24410;DHT22;12543;53.364;-1.504;2023-07-24T14:24:47;17.90;99.90
24410;DHT22;12543;53.364;-1.504;2023-07-24T14:27:14;17.80;99.90
24410;DHT22;12543;53.364;-1.504;2023-07-24T14:29:41;17.70;99.90
24410;DHT22;12543;53.364;-1.504;2023-07-24T14:32:08;17.60;99.90
24410;DHT22;12543;53.364;-1.504;2023-07-24T14:34:36;17.50;99.90
24410;DHT22;12543;53.364;-1.504;2023-07-24T14:37:05;17.50;99.90
24410;DHT22;12543;53.364;-1.504;2023-07-24T14:39:32;17.50;99.90
24410;DHT22;12543;53.364;-1.504;2023-07-24T14:42:05;17.50;99.90
24410;DHT22;12543;53.364;-1.504;2023-07-24T14:44:34;17.50;99.90
24410;DHT22;12543;53.364;-1.504;2023-07-24T14:47:02;17.50;99.90
24410;DHT22;12543;53.364;-1.504;2023-07-24T14:49:29;17.50;99.90
24410;DHT22;12543;53.364;-1.504;2023-07-24T14:51:56;17.50;99.90
24410;DHT22;12543;53.364;-1.504;2023-07-24T14:54:23;17.40;99.90
24410;DHT22;12543;53.364;-1.504;2023-07-24T14:56:50;17.40;99.90
24410;DHT22;12543;53.364;-1.504;2023-07-24T14:59:27;17.40;99.90
24410;DHT22;12543;53.364;-1.504;2023-07-24T15:01:55;17.40;99.90
24410;DHT22;12543;53.364;-1.504;2023-07-24T15:04:22;17.40;99.90
24410;DHT22;12543;53.364;-1.504;2023-07-24T15:06:49;17.40;99.90
24410;DHT22;12543;53.364;-1.504;2023-07-24T15:09:17;17.50;99.90
24410;DHT22;12543;53.364;-1.504;2023-07-24T15:11:44;17.50;99.90
24410;DHT22;12543;53.364;-1.504;2023-07-24T15:14:11;17.50;99.90
24410;DHT22;12543;53.364;-1.504;2023-07-24T15:16:38;17.50;99.90
24410;DHT22;12543;53.364;-1.504;2023-07-24T15:19:05;17.50;99.90
24410;DHT22;12543;53.364;-1.504;2023-07-24T15:21:32;17.60;99.90
24410;DHT22;12543;53.364;-1.504;2023-07-24T15:24:00;17.60;99.90
24410;DHT22;12543;53.364;-1.504;2023-07-24T15:26:27;17.50;99.90
24410;DHT22;12543;53.364;-1.504;2023-07-24T15:28:54;17.50;99.90
24410;DHT22;12543;53.364;-1.504;2023-07-24T15:31:21;17.50;99.90
24410;DHT22;12543;53.364;-1.504;2023-07-24T15:33:52;17.60;99.90
24410;DHT22;12543;53.364;-1.504;2023-07-24T15:36:22;17.50;99.90
24410;DHT22;12543;53.364;-1.504;2023-07-24T15:38:49;17.60;99.90